sensor_id;sensor_type;location;lat;lon;timestamp;pressure;altitude;pressure_sealevel;temperature;humidity
13836;BME280;6988;52.614;13.500;2023-02-07T00:03:52;55111.59;;;-143.77;81.27
13836;BME280;6988;52.614;13.500;2023-02-07T00:08:46;55099.28;;;-143.77;81.12
13836;BME280;6988;52.614;13.500;2023-02-07T00:13:38;55125.97;;;-143.77;80.85
13836;BME280;6988;52.614;13.500;2023-02-07T00:18:30;55144.44;;;-143.77;81.26
13836;BME280;6988;52.614;13.500;2023-02-07T00:23:24;55140.31;;;-143.77;81.40
13836;BME280;6988;52.614;13.500;2023-02-07T00:28:16;55130.06;;;-143.77;81.04
13836;BME280;6988;52.614;13.500;2023-02-07T00:33:08;55130.06;;;-143.77;81.24
13836;BME280;6988;52.614;13.500;2023-02-07T00:37:59;55105.44;;;-143.77;81.10
13836;BME280;6988;52.614;13.500;2023-02-07T00:42:53;55105.44;;;-143.77;80.52
13836;BME280;6988;52.614;13.500;2023-02-07T00:47:45;55121.84;;;-143.77;80.69
13836;BME280;6988;52.614;13.500;2023-02-07T00:52:36;55121.84;;;-143.77;80.66
13836;BME280;6988;52.614;13.500;2023-02-07T00:57:28;55167.00;;;-143.77;80.53
13836;BME280;6988;52.614;13.500;2023-02-07T01:02:21;55148.53;;;-143.77;80.33
13836;BME280;6988;52.614;13.500;2023-02-07T01:07:13;55093.13;;;-143.77;80.52
13836;BME280;6988;52.614;13.500;2023-02-07T01:12:06;55140.31;;;-143.77;80.27
13836;BME280;6988;52.614;13.500;2023-02-07T01:17:00;55111.59;;;-143.77;80.38
13836;BME280;6988;52.614;13.500;2023-02-07T01:21:53;55117.75;;;-143.77;80.18
13836;BME280;6988;52.614;13.500;2023-02-07T01:26:45;55164.94;;;-143.77;80.19
13836;BME280;6988;52.614;13.500;2023-02-07T01:31:40;55113.66;;;-143.77;79.93
13836;BME280;6988;52.614;13.500;2023-02-07T01:36:32;55097.22;;;-143.77;79.79
13836;BME280;6988;52.614;13.500;2023-02-07T01:41:26;55148.53;;;-143.77;80.13
13836;BME280;6988;52.614;13.500;2023-02-07T01:46:18;55142.38;;;-143.77;79.81
13836;BME280;6988;52.614;13.500;2023-02-07T01:51:11;55121.84;;;-143.77;80.01
13836;BME280;6988;52.614;13.500;2023-02-07T01:56:06;55191.63;;;-143.77;79.79
13836;BME280;6988;52.614;13.500;2023-02-07T02:01:09;55144.44;;;-143.77;79.71
13836;BME280;6988;52.614;13.500;2023-02-07T02:06:02;55134.16;;;-143.77;79.62
13836;BME280;6988;52.614;13.500;2023-02-07T02:11:20;55123.91;;;-143.77;79.31
13836;BME280;6988;52.614;13.500;2023-02-07T02:16:24;55109.53;;;-143.77;78.82
13836;BME280;6988;52.614;13.500;2023-02-07T02:22:00;55125.97;;;-143.77;79.00
13836;BME280;6988;52.614;13.500;2023-02-07T02:27:03;55179.31;;;-143.77;79.29
13836;BME280;6988;52.614;13.500;2023-02-07T02:38:07;55152.63;;;-143.77;79.45
13836;BME280;6988;52.614;13.500;2023-02-07T02:43:08;55111.59;;;-143.77;79.53
13836;BME280;6988;52.614;13.500;2023-02-07T02:48:04;55158.78;;;-143.77;79.56
13836;BME280;6988;52.614;13.500;2023-02-07T02:52:58;55144.44;;;-143.77;79.53
13836;BME280;6988;52.614;13.500;2023-02-07T02:58:04;55113.66;;;-143.77;79.75
13836;BME280;6988;52.614;13.500;2023-02-07T03:08:38;55152.63;;;-143.77;79.55
13836;BME280;6988;52.614;13.500;2023-02-07T03:13:40;55160.84;;;-143.77;79.08
13836;BME280;6988;52.614;13.500;2023-02-07T03:18:46;55146.47;;;-143.77;78.85
13836;BME280;6988;52.614;13.500;2023-02-07T03:23:47;55179.31;;;-143.77;78.05
13836;BME280;6988;52.614;13.500;2023-02-07T03:28:45;55132.13;;;-143.77;77.91
13836;BME280;6988;52.614;13.500;2023-02-07T03:33:38;55160.84;;;-143.77;77.55
13836;BME280;6988;52.614;13.500;2023-02-07T03:38:32;55175.22;;;-143.77;77.51
13836;BME280;6988;52.614;13.500;2023-02-07T03:43:29;55169.06;;;-143.77;78.26
13836;BME280;6988;52.614;13.500;2023-02-07T03:48:23;55154.69;;;-143.77;78.41
13836;BME280;6988;52.614;13.500;2023-02-07T03:53:15;55140.31;;;-143.77;79.27
13836;BME280;6988;52.614;13.500;2023-02-07T03:58:07;55150.59;;;-143.77;79.33
13836;BME280;6988;52.614;13.500;2023-02-07T04:03:00;55156.75;;;-143.77;79.58
13836;BME280;6988;52.614;13.500;2023-02-07T04:07:53;55181.38;;;-143.77;79.66
13836;BME280;6988;52.614;13.500;2023-02-07T04:12:45;55148.53;;;-143.77;79.74
13836;BME280;6988;52.614;13.500;2023-02-07T04:17:37;55177.25;;;-143.77;80.01
13836;BME280;6988;52.614;13.500;2023-02-07T04:22:31;55142.38;;;-143.77;79.35
13836;BME280;6988;52.614;13.500;2023-02-07T04:27:23;55164.94;;;-143.77;78.42
13836;BME280;6988;52.614;13.500;2023-02-07T04:32:15;55160.84;;;-143.77;78.48
13836;BME280;6988;52.614;13.500;2023-02-07T04:37:08;55099.28;;;-143.77;79.03
13836;BME280;6988;52.614;13.500;2023-02-07T04:42:02;55181.38;;;-143.77;79.37
13836;BME280;6988;52.614;13.500;2023-02-07T04:46:54;55158.78;;;-143.77;79.24
13836;BME280;6988;52.614;13.500;2023-02-07T04:51:46;55123.91;;;-143.77;79.13
13836;BME280;6988;52.614;13.500;2023-02-07T04:56:38;55179.31;;;-143.77;79.46
13836;BME280;6988;52.614;13.500;2023-02-07T05:01:31;55164.94;;;-143.77;79.65
13836;BME280;6988;52.614;13.500;2023-02-07T05:06:23;55130.06;;;-143.77;79.79
13836;BME280;6988;52.614;13.500;2023-02-07T05:11:15;55164.94;;;-143.77;79.86
13836;BME280;6988;52.614;13.500;2023-02-07T05:16:08;55091.06;;;-143.77;79.42
13836;BME280;6988;52.614;13.500;2023-02-07T05:21:01;55156.75;;;-143.77;79.31
13836;BME280;6988;52.614;13.500;2023-02-07T05:25:54;55201.91;;;-143.77;79.47
13836;BME280;6988;52.614;13.500;2023-02-07T05:30:46;55162.91;;;-143.77;79.04
13836;BME280;6988;52.614;13.500;2023-02-07T05:35:40;55152.63;;;-143.77;79.01
13836;BME280;6988;52.614;13.500;2023-02-07T05:40:34;55181.38;;;-143.77;79.62
13836;BME280;6988;52.614;13.500;2023-02-07T05:45:25;55148.53;;;-143.77;79.82
13836;BME280;6988;52.614;13.500;2023-02-07T05:50:18;55173.16;;;-143.77;79.83
13836;BME280;6988;52.614;13.500;2023-02-07T05:55:10;55175.22;;;-143.77;79.26
13836;BME280;6988;52.614;13.500;2023-02-07T06:00:05;55152.63;;;-143.77;79.12
13836;BME280;6988;52.614;13.500;2023-02-07T06:05:02;55154.69;;;-143.77;79.04
13836;BME280;6988;52.614;13.500;2023-02-07T06:09:54;55154.69;;;-143.77;79.16
13836;BME280;6988;52.614;13.500;2023-02-07T06:14:46;55152.63;;;-143.77;79.87
13836;BME280;6988;52.614;13.500;2023-02-07T06:19:39;55117.75;;;-143.77;80.07
13836;BME280;6988;52.614;13.500;2023-02-07T06:24:31;55164.94;;;-143.77;80.33
13836;BME280;6988;52.614;13.500;2023-02-07T06:29:23;55140.31;;;-143.77;80.98
13836;BME280;6988;52.614;13.500;2023-02-07T06:34:15;55175.22;;;-143.77;81.07
13836;BME280;6988;52.614;13.500;2023-02-07T06:39:08;55154.69;;;-143.77;81.26
13836;BME280;6988;52.614;13.500;2023-02-07T06:44:00;55156.75;;;-143.77;81.36
13836;BME280;6988;52.614;13.500;2023-02-07T06:48:52;55136.22;;;-143.77;81.52
13836;BME280;6988;52.614;13.500;2023-02-07T06:53:44;55140.31;;;-143.77;81.55
13836;BME280;6988;52.614;13.500;2023-02-07T06:58:37;55175.22;;;-143.77;81.32
13836;BME280;6988;52.614;13.500;2023-02-07T07:03:29;55123.91;;;-143.77;81.02
13836;BME280;6988;52.614;13.500;2023-02-07T07:08:21;55148.53;;;-143.77;80.92
13836;BME280;6988;52.614;13.500;2023-02-07T07:13:13;55117.75;;;-143.77;80.89
13836;BME280;6988;52.614;13.500;2023-02-07T07:18:06;55136.22;;;-143.77;80.97
13836;BME280;6988;52.614;13.500;2023-02-07T07:22:58;55064.41;;;-143.77;79.15
13836;BME280;6988;52.614;13.500;2023-02-07T07:27:51;55140.31;;;-143.77;79.60
13836;BME280;6988;52.614;13.500;2023-02-07T07:32:43;55099.28;;;-143.77;79.75
13836;BME280;6988;52.614;13.500;2023-02-07T07:37:37;55082.88;;;-143.77;79.42
13836;BME280;6988;52.614;13.500;2023-02-07T07:42:29;55043.88;;;-143.77;78.98
13836;BME280;6988;52.614;13.500;2023-02-07T07:47:48;55060.28;;;-143.77;77.89
13836;BME280;6988;52.614;13.500;2023-02-07T07:52:42;55043.88;;;-143.77;77.73
13836;BME280;6988;52.614;13.500;2023-02-07T07:57:34;55027.44;;;-143.77;77.12
13836;BME280;6988;52.614;13.500;2023-02-07T08:02:25;55039.75;;;-143.77;75.60
13836;BME280;6988;52.614;13.500;2023-02-07T08:07:17;55011.03;;;-143.77;73.51
13836;BME280;6988;52.614;13.500;2023-02-07T08:12:11;55035.66;;;-143.77;75.14
13836;BME280;6988;52.614;13.500;2023-02-07T08:17:02;54992.56;;;-143.77;74.75
13836;BME280;6988;52.614;13.500;2023-02-07T08:21:54;54994.63;;;-143.77;74.45
13836;BME280;6988;52.614;13.500;2023-02-07T08:26:46;54990.50;;;-143.77;71.93
13836;BME280;6988;52.614;13.500;2023-02-07T08:31:39;54943.31;;;-143.77;71.43
13836;BME280;6988;52.614;13.500;2023-02-07T08:36:31;54959.72;;;-143.77;69.49
13836;BME280;6988;52.614;13.500;2023-02-07T08:41:22;54992.56;;;-143.77;71.19
13836;BME280;6988;52.614;13.500;2023-02-07T08:46:14;54945.38;;;-143.77;72.60
13836;BME280;6988;52.614;13.500;2023-02-07T08:51:08;54922.78;;;-143.77;73.15
13836;BME280;6988;52.614;13.500;2023-02-07T08:56:00;54941.25;;;-143.77;71.33
13836;BME280;6988;52.614;13.500;2023-02-07T09:00:52;54931.00;;;-143.77;68.79
13836;BME280;6988;52.614;13.500;2023-02-07T09:05:44;54885.84;;;-143.77;69.06
13836;BME280;6988;52.614;13.500;2023-02-07T09:10:37;54898.16;;;-143.77;67.03
13836;BME280;6988;52.614;13.500;2023-02-07T09:15:29;54918.69;;;-143.77;67.12
13836;BME280;6988;52.614;13.500;2023-02-07T09:20:21;54941.25;;;-143.77;67.89
13836;BME280;6988;52.614;13.500;2023-02-07T09:25:13;54931.00;;;-143.77;69.05
13836;BME280;6988;52.614;13.500;2023-02-07T09:30:07;54955.63;;;-143.77;69.76
13836;BME280;6988;52.614;13.500;2023-02-07T09:34:59;54920.75;;;-143.77;71.35
13836;BME280;6988;52.614;13.500;2023-02-07T09:39:51;54939.22;;;-143.77;71.65
13836;BME280;6988;52.614;13.500;2023-02-07T09:44:53;54902.28;;;-143.77;71.82
13836;BME280;6988;52.614;13.500;2023-02-07T09:49:52;54953.56;;;-143.77;72.13
13836;BME280;6988;52.614;13.500;2023-02-07T09:54:49;54926.91;;;-143.77;72.16
13836;BME280;6988;52.614;13.500;2023-02-07T09:59:49;54980.25;;;-143.77;72.50
13836;BME280;6988;52.614;13.500;2023-02-07T10:04:49;54959.72;;;-143.77;73.38
13836;BME280;6988;52.614;13.500;2023-02-07T10:09:44;54947.41;;;-143.77;72.79
13836;BME280;6988;52.614;13.500;2023-02-07T10:15:00;54935.09;;;-143.77;72.39
13836;BME280;6988;52.614;13.500;2023-02-07T10:20:11;54976.16;;;-143.77;71.90
13836;BME280;6988;52.614;13.500;2023-02-07T10:25:29;54943.31;;;-143.77;71.40
13836;BME280;6988;52.614;13.500;2023-02-07T10:30:27;54941.25;;;-143.77;72.08
13836;BME280;6988;52.614;13.500;2023-02-07T10:35:24;54947.41;;;-143.77;72.21
13836;BME280;6988;52.614;13.500;2023-02-07T10:40:25;54931.00;;;-143.77;72.00
13836;BME280;6988;52.614;13.500;2023-02-07T10:45:18;54941.25;;;-143.77;71.37
13836;BME280;6988;52.614;13.500;2023-02-07T10:50:14;54961.78;;;-143.77;71.22
13836;BME280;6988;52.614;13.500;2023-02-07T10:55:11;54961.78;;;-143.77;70.81
13836;BME280;6988;52.614;13.500;2023-02-07T11:00:14;54955.63;;;-143.77;70.17
13836;BME280;6988;52.614;13.500;2023-02-07T11:05:34;54949.47;;;-143.77;69.30
13836;BME280;6988;52.614;13.500;2023-02-07T11:10:34;54953.56;;;-143.77;69.63
13836;BME280;6988;52.614;13.500;2023-02-07T11:15:36;54935.09;;;-143.77;68.48
13836;BME280;6988;52.614;13.500;2023-02-07T11:20:33;54943.31;;;-143.77;67.44
13836;BME280;6988;52.614;13.500;2023-02-07T11:25:31;54914.59;;;-143.77;68.03
13836;BME280;6988;52.614;13.500;2023-02-07T11:30:27;54918.69;;;-143.77;68.38
13836;BME280;6988;52.614;13.500;2023-02-07T11:35:20;54902.28;;;-143.77;67.18
13836;BME280;6988;52.614;13.500;2023-02-07T11:40:23;54949.47;;;-143.77;66.26
13836;BME280;6988;52.614;13.500;2023-02-07T11:45:21;54949.47;;;-143.77;67.03
13836;BME280;6988;52.614;13.500;2023-02-07T11:50:21;54922.78;;;-143.77;68.07
13836;BME280;6988;52.614;13.500;2023-02-07T11:55:23;54892.00;;;-143.77;66.62
13836;BME280;6988;52.614;13.500;2023-02-07T12:00:23;54879.69;;;-143.77;66.81
13836;BME280;6988;52.614;13.500;2023-02-07T12:05:20;54869.44;;;-143.77;64.58
13836;BME280;6988;52.614;13.500;2023-02-07T12:10:20;54857.13;;;-143.77;63.29
13836;BME280;6988;52.614;13.500;2023-02-07T12:15:17;54820.19;;;-143.77;64.23
13836;BME280;6988;52.614;13.500;2023-02-07T12:20:21;54889.97;;;-143.77;60.81
13836;BME280;6988;52.614;13.500;2023-02-07T12:25:19;54850.97;;;-143.77;60.23
13836;BME280;6988;52.614;13.500;2023-02-07T12:30:20;54857.13;;;-143.77;58.62
13836;BME280;6988;52.614;13.500;2023-02-07T12:35:25;54807.88;;;-143.77;60.12
13836;BME280;6988;52.614;13.500;2023-02-07T12:40:27;54836.59;;;-143.77;58.39
13836;BME280;6988;52.614;13.500;2023-02-07T12:45:37;54889.97;;;-143.77;59.10
13836;BME280;6988;52.614;13.500;2023-02-07T12:50:53;54793.50;;;-143.77;59.93
13836;BME280;6988;52.614;13.500;2023-02-07T12:55:58;54770.94;;;-143.77;57.56
13836;BME280;6988;52.614;13.500;2023-02-07T13:01:00;54770.94;;;-143.77;54.56
13836;BME280;6988;52.614;13.500;2023-02-07T13:06:04;54760.69;;;-143.77;57.75
13836;BME280;6988;52.614;13.500;2023-02-07T13:11:16;54756.56;;;-143.77;57.88
13836;BME280;6988;52.614;13.500;2023-02-07T13:16:17;54729.91;;;-143.77;57.47
13836;BME280;6988;52.614;13.500;2023-02-07T13:21:21;54713.47;;;-143.77;56.00
13836;BME280;6988;52.614;13.500;2023-02-07T13:26:18;54729.91;;;-143.77;55.19
13836;BME280;6988;52.614;13.500;2023-02-07T13:31:16;54692.97;;;-143.77;55.54
13836;BME280;6988;52.614;13.500;2023-02-07T13:36:17;54703.22;;;-143.77;55.75
13836;BME280;6988;52.614;13.500;2023-02-07T13:41:18;54703.22;;;-143.77;54.17
13836;BME280;6988;52.614;13.500;2023-02-07T13:46:32;54738.09;;;-143.77;51.04
13836;BME280;6988;52.614;13.500;2023-02-07T13:51:48;54748.38;;;-143.77;53.46
13836;BME280;6988;52.614;13.500;2023-02-07T13:56:56;54731.94;;;-143.77;53.81
13836;BME280;6988;52.614;13.500;2023-02-07T14:02:16;54738.09;;;-143.77;53.51
13836;BME280;6988;52.614;13.500;2023-02-07T14:07:19;54738.09;;;-143.77;52.57
13836;BME280;6988;52.614;13.500;2023-02-07T14:12:20;54719.63;;;-143.77;50.81
13836;BME280;6988;52.614;13.500;2023-02-07T14:23:13;54709.38;;;-143.77;53.07
13836;BME280;6988;52.614;13.500;2023-02-07T14:28:21;54727.84;;;-143.77;53.77
13836;BME280;6988;52.614;13.500;2023-02-07T14:33:20;54836.59;;;-143.77;54.63
13836;BME280;6988;52.614;13.500;2023-02-07T14:38:30;54768.88;;;-143.77;54.53
13836;BME280;6988;52.614;13.500;2023-02-07T14:43:30;54779.16;;;-143.77;53.66
13836;BME280;6988;52.614;13.500;2023-02-07T14:48:36;54805.81;;;-143.77;53.75
13836;BME280;6988;52.614;13.500;2023-02-07T14:53:31;54805.81;;;-143.77;54.62
13836;BME280;6988;52.614;13.500;2023-02-07T14:58:32;54791.47;;;-143.77;55.61
13836;BME280;6988;52.614;13.500;2023-02-07T15:03:29;54822.25;;;-143.77;56.77
13836;BME280;6988;52.614;13.500;2023-02-07T15:08:23;54791.47;;;-143.77;57.32
13836;BME280;6988;52.614;13.500;2023-02-07T15:13:24;54869.44;;;-143.77;58.49
13836;BME280;6988;52.614;13.500;2023-02-07T15:18:20;54840.72;;;-143.77;58.91
13836;BME280;6988;52.614;13.500;2023-02-07T15:23:14;54834.56;;;-143.77;59.09
13836;BME280;6988;52.614;13.500;2023-02-07T15:28:19;54836.59;;;-143.77;60.08
13836;BME280;6988;52.614;13.500;2023-02-07T15:33:16;54861.22;;;-143.77;60.92
13836;BME280;6988;52.614;13.500;2023-02-07T15:38:18;54869.44;;;-143.77;61.23
13836;BME280;6988;52.614;13.500;2023-02-07T15:43:29;54853.03;;;-143.77;62.08
13836;BME280;6988;52.614;13.500;2023-02-07T15:48:22;54898.16;;;-143.77;62.62
13836;BME280;6988;52.614;13.500;2023-02-07T15:53:22;54883.81;;;-143.77;62.77
13836;BME280;6988;52.614;13.500;2023-02-07T15:58:21;54898.16;;;-143.77;62.57
13836;BME280;6988;52.614;13.500;2023-02-07T16:03:19;54945.38;;;-143.77;63.01
13836;BME280;6988;52.614;13.500;2023-02-07T16:08:30;54896.13;;;-143.77;63.46
13836;BME280;6988;52.614;13.500;2023-02-07T16:13:26;54902.28;;;-143.77;63.54
13836;BME280;6988;52.614;13.500;2023-02-07T16:18:35;54885.84;;;-143.77;63.89
13836;BME280;6988;52.614;13.500;2023-02-07T16:23:27;54918.69;;;-143.77;64.98
13836;BME280;6988;52.614;13.500;2023-02-07T16:28:19;54935.09;;;-143.77;65.17
13836;BME280;6988;52.614;13.500;2023-02-07T16:33:12;54939.22;;;-143.77;65.58
13836;BME280;6988;52.614;13.500;2023-02-07T16:38:04;54922.78;;;-143.77;65.32
13836;BME280;6988;52.614;13.500;2023-02-07T16:42:56;54928.94;;;-143.77;66.11
13836;BME280;6988;52.614;13.500;2023-02-07T16:47:49;54910.47;;;-143.77;66.48
13836;BME280;6988;52.614;13.500;2023-02-07T16:52:42;54937.16;;;-143.77;66.76
13836;BME280;6988;52.614;13.500;2023-02-07T16:57:36;54931.00;;;-143.77;66.90
13836;BME280;6988;52.614;13.500;2023-02-07T17:02:28;54943.31;;;-143.77;67.24
13836;BME280;6988;52.614;13.500;2023-02-07T17:07:20;54970.00;;;-143.77;67.52
13836;BME280;6988;52.614;13.500;2023-02-07T17:12:13;54961.78;;;-143.77;67.58
13836;BME280;6988;52.614;13.500;2023-02-07T17:17:04;54978.19;;;-143.77;67.84
13836;BME280;6988;52.614;13.500;2023-02-07T17:21:56;54951.53;;;-143.77;68.70
13836;BME280;6988;52.614;13.500;2023-02-07T17:26:51;54941.25;;;-143.77;68.85
13836;BME280;6988;52.614;13.500;2023-02-07T17:31:46;54982.31;;;-143.77;69.60
13836;BME280;6988;52.614;13.500;2023-02-07T17:36:44;54949.47;;;-143.77;70.14
13836;BME280;6988;52.614;13.500;2023-02-07T17:41:36;54970.00;;;-143.77;70.98
13836;BME280;6988;52.614;13.500;2023-02-07T17:46:29;54965.88;;;-143.77;70.94
13836;BME280;6988;52.614;13.500;2023-02-07T17:51:26;54941.25;;;-143.77;71.40
13836;BME280;6988;52.614;13.500;2023-02-07T17:56:22;54967.94;;;-143.77;71.26
13836;BME280;6988;52.614;13.500;2023-02-07T18:01:14;54978.19;;;-143.77;71.56
13836;BME280;6988;52.614;13.500;2023-02-07T18:06:12;54990.50;;;-143.77;71.26
13836;BME280;6988;52.614;13.500;2023-02-07T18:11:06;54998.72;;;-143.77;71.53
13836;BME280;6988;52.614;13.500;2023-02-07T18:15:58;54972.03;;;-143.77;71.87
13836;BME280;6988;52.614;13.500;2023-02-07T18:20:50;55017.19;;;-143.77;72.27
13836;BME280;6988;52.614;13.500;2023-02-07T18:25:46;54980.25;;;-143.77;72.02
13836;BME280;6988;52.614;13.500;2023-02-07T18:30:40;54990.50;;;-143.77;71.87
13836;BME280;6988;52.614;13.500;2023-02-07T18:35:32;55035.66;;;-143.77;71.86
13836;BME280;6988;52.614;13.500;2023-02-07T18:40:24;54988.47;;;-143.77;72.44
13836;BME280;6988;52.614;13.500;2023-02-07T18:45:16;54976.16;;;-143.77;72.68
13836;BME280;6988;52.614;13.500;2023-02-07T18:50:11;55025.41;;;-143.77;73.14
13836;BME280;6988;52.614;13.500;2023-02-07T18:55:03;55031.56;;;-143.77;73.26
13836;BME280;6988;52.614;13.500;2023-02-07T18:59:56;55021.28;;;-143.77;72.77
13836;BME280;6988;52.614;13.500;2023-02-07T19:04:48;54990.50;;;-143.77;73.12
13836;BME280;6988;52.614;13.500;2023-02-07T19:09:41;55015.13;;;-143.77;72.99
13836;BME280;6988;52.614;13.500;2023-02-07T19:14:33;55023.34;;;-143.77;73.51
13836;BME280;6988;52.614;13.500;2023-02-07T19:19:28;55019.25;;;-143.77;74.03
13836;BME280;6988;52.614;13.500;2023-02-07T19:24:22;55025.41;;;-143.77;74.42
13836;BME280;6988;52.614;13.500;2023-02-07T19:29:17;55031.56;;;-143.77;74.37
13836;BME280;6988;52.614;13.500;2023-02-07T19:34:11;54996.66;;;-143.77;73.28
13836;BME280;6988;52.614;13.500;2023-02-07T19:39:04;55037.72;;;-143.77;73.40
13836;BME280;6988;52.614;13.500;2023-02-07T19:43:57;54992.56;;;-143.77;73.65
13836;BME280;6988;52.614;13.500;2023-02-07T19:48:51;55033.59;;;-143.77;73.72
13836;BME280;6988;52.614;13.500;2023-02-07T19:53:45;55021.28;;;-143.77;74.05
13836;BME280;6988;52.614;13.500;2023-02-07T19:58:39;55062.34;;;-143.77;74.68
13836;BME280;6988;52.614;13.500;2023-02-07T20:03:31;55037.72;;;-143.77;75.00
13836;BME280;6988;52.614;13.500;2023-02-07T20:08:24;55031.56;;;-143.77;75.15
13836;BME280;6988;52.614;13.500;2023-02-07T20:13:16;55039.75;;;-143.77;75.62
13836;BME280;6988;52.614;13.500;2023-02-07T20:18:09;55029.50;;;-143.77;75.58
13836;BME280;6988;52.614;13.500;2023-02-07T20:23:02;55029.50;;;-143.77;75.47
13836;BME280;6988;52.614;13.500;2023-02-07T20:27:55;55041.81;;;-143.77;75.92
13836;BME280;6988;52.614;13.500;2023-02-07T20:32:46;55033.59;;;-143.77;75.85
13836;BME280;6988;52.614;13.500;2023-02-07T20:37:40;55054.13;;;-143.77;75.52
13836;BME280;6988;52.614;13.500;2023-02-07T20:42:32;55047.97;;;-143.77;75.46
13836;BME280;6988;52.614;13.500;2023-02-07T20:47:25;55023.34;;;-143.77;75.64
13836;BME280;6988;52.614;13.500;2023-02-07T20:52:16;55033.59;;;-143.77;75.38
13836;BME280;6988;52.614;13.500;2023-02-07T20:57:08;55017.19;;;-143.77;75.46
13836;BME280;6988;52.614;13.500;2023-02-07T21:02:01;55027.44;;;-143.77;76.14
13836;BME280;6988;52.614;13.500;2023-02-07T21:06:54;55062.34;;;-143.77;76.35
13836;BME280;6988;52.614;13.500;2023-02-07T21:11:48;55054.13;;;-143.77;76.58
13836;BME280;6988;52.614;13.500;2023-02-07T21:16:41;55025.41;;;-143.77;76.73
13836;BME280;6988;52.614;13.500;2023-02-07T21:21:33;55031.56;;;-143.77;76.51
13836;BME280;6988;52.614;13.500;2023-02-07T21:26:26;55041.81;;;-143.77;76.51
13836;BME280;6988;52.614;13.500;2023-02-07T21:31:20;55045.91;;;-143.77;76.39
13836;BME280;6988;52.614;13.500;2023-02-07T21:36:15;55033.59;;;-143.77;76.34
13836;BME280;6988;52.614;13.500;2023-02-07T21:41:09;55078.75;;;-143.77;76.34
13836;BME280;6988;52.614;13.500;2023-02-07T21:46:06;55056.19;;;-143.77;76.19
13836;BME280;6988;52.614;13.500;2023-02-07T21:51:02;55050.03;;;-143.77;76.12
13836;BME280;6988;52.614;13.500;2023-02-07T21:55:58;55033.59;;;-143.77;76.12
13836;BME280;6988;52.614;13.500;2023-02-07T22:00:49;55047.97;;;-143.77;76.20
13836;BME280;6988;52.614;13.500;2023-02-07T22:05:43;55074.66;;;-143.77;76.01
13836;BME280;6988;52.614;13.500;2023-02-07T22:10:34;55074.66;;;-143.77;76.01
13836;BME280;6988;52.614;13.500;2023-02-07T22:15:26;55029.50;;;-143.77;75.98
13836;BME280;6988;52.614;13.500;2023-02-07T22:20:18;55082.88;;;-143.77;76.50
13836;BME280;6988;52.614;13.500;2023-02-07T22:25:11;55035.66;;;-143.77;76.65
13836;BME280;6988;52.614;13.500;2023-02-07T22:30:04;55091.06;;;-143.77;76.54
13836;BME280;6988;52.614;13.500;2023-02-07T22:34:56;55070.56;;;-143.77;76.51
13836;BME280;6988;52.614;13.500;2023-02-07T22:39:48;55070.56;;;-143.77;76.70
13836;BME280;6988;52.614;13.500;2023-02-07T22:44:41;55068.50;;;-143.77;76.61
13836;BME280;6988;52.614;13.500;2023-02-07T23:05:20;55093.13;;;-143.77;75.80
13836;BME280;6988;52.614;13.500;2023-02-07T23:10:13;55082.88;;;-143.77;76.10
13836;BME280;6988;52.614;13.500;2023-02-07T23:15:07;55072.59;;;-143.77;76.92
13836;BME280;6988;52.614;13.500;2023-02-07T23:19:59;55064.41;;;-143.77;77.42
13836;BME280;6988;52.614;13.500;2023-02-07T23:24:54;55054.13;;;-143.77;77.51
13836;BME280;6988;52.614;13.500;2023-02-07T23:29:46;55101.34;;;-143.77;77.68
13836;BME280;6988;52.614;13.500;2023-02-07T23:34:38;55078.75;;;-143.77;77.68
13836;BME280;6988;52.614;13.500;2023-02-07T23:39:30;55089.03;;;-143.77;77.82
13836;BME280;6988;52.614;13.500;2023-02-07T23:44:23;55054.13;;;-143.77;78.15
13836;BME280;6988;52.614;13.500;2023-02-07T23:49:15;55066.44;;;-143.77;77.94
13836;BME280;6988;52.614;13.500;2023-02-07T23:54:07;55099.28;;;-143.77;78.02
13836;BME280;6988;52.614;13.500;2023-02-07T23:58:59;55080.81;;;-143.77;77.88
